Saint Croix, Minnesota
Current Conditions -  °F | °C
As of 8:35 PM on Wednesday 22 Oct 2014 (Local Time) from KRNH Reporting Station
Clear Clear  
Wind Chill: 54°   Ceiling: Unl
Heat Index: 54°   Visibility: 10mi
Dew Point: 37°   Wind: 12mph
Humidity: 54%   Direction: 150°SSE
Pressure: 30.07"   Gusts: 21mph
Location:  45.1574°N, 92.7623°W
Report Text: KRNH 230135Z AUTO 15010G18KT 10SM CLR 12/03 A3007 RMK AO2 T01210030
Loading
Personal Weather Stations






























Interactive Weather Map
Tropical Storm Tracking
New forecast layout! Learn more

10-Day Weather Forecast

Advertisements
Track Severe Weather on mobile